sensor_id;sensor_type;location;lat;lon;timestamp;temperature;humidity
10722;DHT22;5412;59.450;18.124;2024-03-02T00:02:13;6.30;99.90
10722;DHT22;5412;59.450;18.124;2024-03-02T00:04:39;6.30;99.90
10722;DHT22;5412;59.450;18.124;2024-03-02T00:07:06;6.40;99.90
10722;DHT22;5412;59.450;18.124;2024-03-02T00:09:33;6.30;99.90
10722;DHT22;5412;59.450;18.124;2024-03-02T00:12:00;6.30;99.90
10722;DHT22;5412;59.450;18.124;2024-03-02T00:14:29;6.30;99.90
10722;DHT22;5412;59.450;18.124;2024-03-02T00:16:56;6.40;99.90
10722;DHT22;5412;59.450;18.124;2024-03-02T00:19:22;6.40;99.90
10722;DHT22;5412;59.450;18.124;2024-03-02T00:21:47;6.30;99.90
10722;DHT22;5412;59.450;18.124;2024-03-02T00:24:33;6.40;99.90
10722;DHT22;5412;59.450;18.124;2024-03-02T00:27:00;6.30;99.90
10722;DHT22;5412;59.450;18.124;2024-03-02T00:29:28;6.30;99.90
10722;DHT22;5412;59.450;18.124;2024-03-02T00:31:55;6.20;99.90
10722;DHT22;5412;59.450;18.124;2024-03-02T00:34:21;6.20;99.90
10722;DHT22;5412;59.450;18.124;2024-03-02T00:36:47;6.10;99.90
10722;DHT22;5412;59.450;18.124;2024-03-02T00:39:15;6.10;99.90
10722;DHT22;5412;59.450;18.124;2024-03-02T00:41:42;6.10;99.90
10722;DHT22;5412;59.450;18.124;2024-03-02T00:44:11;6.10;99.90
10722;DHT22;5412;59.450;18.124;2024-03-02T00:46:41;6.10;99.90
10722;DHT22;5412;59.450;18.124;2024-03-02T00:49:22;6.00;99.90
10722;DHT22;5412;59.450;18.124;2024-03-02T00:51:50;6.00;99.90
10722;DHT22;5412;59.450;18.124;2024-03-02T00:54:22;6.00;99.90
10722;DHT22;5412;59.450;18.124;2024-03-02T00:56:50;6.00;99.90
10722;DHT22;5412;59.450;18.124;2024-03-02T00:59:16;6.00;99.90
10722;DHT22;5412;59.450;18.124;2024-03-02T01:01:42;6.00;99.90
10722;DHT22;5412;59.450;18.124;2024-03-02T01:04:09;6.10;99.90
10722;DHT22;5412;59.450;18.124;2024-03-02T01:06:37;6.10;99.90
10722;DHT22;5412;59.450;18.124;2024-03-02T01:09:03;6.20;99.90
10722;DHT22;5412;59.450;18.124;2024-03-02T01:11:29;6.10;99.90
10722;DHT22;5412;59.450;18.124;2024-03-02T01:13:55;6.10;99.90
10722;DHT22;5412;59.450;18.124;2024-03-02T01:16:21;6.10;99.90
10722;DHT22;5412;59.450;18.124;2024-03-02T01:18:47;6.10;99.90
10722;DHT22;5412;59.450;18.124;2024-03-02T01:21:13;6.20;99.90
10722;DHT22;5412;59.450;18.124;2024-03-02T01:23:38;6.20;99.90
10722;DHT22;5412;59.450;18.124;2024-03-02T01:26:04;6.20;99.90
10722;DHT22;5412;59.450;18.124;2024-03-02T01:28:31;6.20;99.90
10722;DHT22;5412;59.450;18.124;2024-03-02T01:30:56;6.10;99.90
10722;DHT22;5412;59.450;18.124;2024-03-02T01:33:22;6.10;99.90
10722;DHT22;5412;59.450;18.124;2024-03-02T01:35:48;6.10;99.90
10722;DHT22;5412;59.450;18.124;2024-03-02T01:38:14;6.10;99.90
10722;DHT22;5412;59.450;18.124;2024-03-02T01:40:39;6.20;99.90
10722;DHT22;5412;59.450;18.124;2024-03-02T01:43:06;6.20;99.90
10722;DHT22;5412;59.450;18.124;2024-03-02T01:45:32;6.20;99.90
10722;DHT22;5412;59.450;18.124;2024-03-02T01:47:58;6.10;99.90
10722;DHT22;5412;59.450;18.124;2024-03-02T01:50:42;6.10;99.90
10722;DHT22;5412;59.450;18.124;2024-03-02T01:53:08;6.10;99.90
10722;DHT22;5412;59.450;18.124;2024-03-02T01:55:35;6.10;99.90
10722;DHT22;5412;59.450;18.124;2024-03-02T01:58:01;6.10;99.90
10722;DHT22;5412;59.450;18.124;2024-03-02T02:00:27;6.10;99.90
10722;DHT22;5412;59.450;18.124;2024-03-02T02:02:53;6.10;99.90
10722;DHT22;5412;59.450;18.124;2024-03-02T02:05:19;6.10;99.90
10722;DHT22;5412;59.450;18.124;2024-03-02T02:07:45;6.10;99.90
10722;DHT22;5412;59.450;18.124;2024-03-02T02:10:11;6.10;99.90
10722;DHT22;5412;59.450;18.124;2024-03-02T02:12:37;6.10;99.90
10722;DHT22;5412;59.450;18.124;2024-03-02T02:17:48;6.00;99.90
10722;DHT22;5412;59.450;18.124;2024-03-02T02:20:14;6.00;99.90
10722;DHT22;5412;59.450;18.124;2024-03-02T02:22:39;6.00;99.90
10722;DHT22;5412;59.450;18.124;2024-03-02T02:25:05;6.00;99.90
10722;DHT22;5412;59.450;18.124;2024-03-02T02:27:31;6.00;99.90
10722;DHT22;5412;59.450;18.124;2024-03-02T02:29:57;6.00;99.90
10722;DHT22;5412;59.450;18.124;2024-03-02T02:32:22;6.00;99.90
10722;DHT22;5412;59.450;18.124;2024-03-02T02:34:52;6.10;99.90
10722;DHT22;5412;59.450;18.124;2024-03-02T02:37:18;5.90;99.90
10722;DHT22;5412;59.450;18.124;2024-03-02T02:39:43;5.90;99.90
10722;DHT22;5412;59.450;18.124;2024-03-02T02:42:09;5.90;99.90
10722;DHT22;5412;59.450;18.124;2024-03-02T02:44:35;6.00;99.90
10722;DHT22;5412;59.450;18.124;2024-03-02T02:47:00;5.90;99.90
10722;DHT22;5412;59.450;18.124;2024-03-02T02:49:26;5.90;99.90
10722;DHT22;5412;59.450;18.124;2024-03-02T02:51:52;5.80;99.90
10722;DHT22;5412;59.450;18.124;2024-03-02T02:54:17;5.80;99.90
10722;DHT22;5412;59.450;18.124;2024-03-02T02:56:43;5.80;99.90
10722;DHT22;5412;59.450;18.124;2024-03-02T02:59:09;5.70;99.90
10722;DHT22;5412;59.450;18.124;2024-03-02T03:01:34;5.70;99.90
10722;DHT22;5412;59.450;18.124;2024-03-02T03:04:00;5.80;99.90
10722;DHT22;5412;59.450;18.124;2024-03-02T03:06:26;5.80;99.90
10722;DHT22;5412;59.450;18.124;2024-03-02T03:08:51;5.80;99.90
10722;DHT22;5412;59.450;18.124;2024-03-02T03:11:17;5.70;99.90
10722;DHT22;5412;59.450;18.124;2024-03-02T03:13:43;5.80;99.90
10722;DHT22;5412;59.450;18.124;2024-03-02T03:16:08;5.80;99.90
10722;DHT22;5412;59.450;18.124;2024-03-02T03:18:34;5.70;99.90
10722;DHT22;5412;59.450;18.124;2024-03-02T03:21:00;5.70;99.90
10722;DHT22;5412;59.450;18.124;2024-03-02T03:23:25;5.70;99.90
10722;DHT22;5412;59.450;18.124;2024-03-02T03:25:51;5.60;99.90
10722;DHT22;5412;59.450;18.124;2024-03-02T03:28:17;5.60;99.90
10722;DHT22;5412;59.450;18.124;2024-03-02T03:30:43;5.60;99.90
10722;DHT22;5412;59.450;18.124;2024-03-02T03:33:09;5.70;99.90
10722;DHT22;5412;59.450;18.124;2024-03-02T03:35:36;5.80;99.90
10722;DHT22;5412;59.450;18.124;2024-03-02T03:38:02;5.80;99.90
10722;DHT22;5412;59.450;18.124;2024-03-02T03:40:28;5.80;99.90
10722;DHT22;5412;59.450;18.124;2024-03-02T03:42:54;5.90;99.90
10722;DHT22;5412;59.450;18.124;2024-03-02T03:45:21;5.80;99.90
10722;DHT22;5412;59.450;18.124;2024-03-02T03:47:47;5.80;99.90
10722;DHT22;5412;59.450;18.124;2024-03-02T03:50:12;5.80;99.90
10722;DHT22;5412;59.450;18.124;2024-03-02T03:52:38;5.80;99.90
10722;DHT22;5412;59.450;18.124;2024-03-02T03:55:04;5.80;99.90
10722;DHT22;5412;59.450;18.124;2024-03-02T03:57:33;5.80;99.90
10722;DHT22;5412;59.450;18.124;2024-03-02T03:59:58;5.80;99.90
10722;DHT22;5412;59.450;18.124;2024-03-02T04:02:25;5.80;99.90
10722;DHT22;5412;59.450;18.124;2024-03-02T04:04:51;5.70;99.90
10722;DHT22;5412;59.450;18.124;2024-03-02T04:07:17;5.60;99.90
10722;DHT22;5412;59.450;18.124;2024-03-02T04:09:43;5.70;99.90
10722;DHT22;5412;59.450;18.124;2024-03-02T04:12:09;5.70;99.90
10722;DHT22;5412;59.450;18.124;2024-03-02T04:14:34;5.70;99.90
10722;DHT22;5412;59.450;18.124;2024-03-02T04:17:00;5.70;99.90
10722;DHT22;5412;59.450;18.124;2024-03-02T04:19:26;5.80;99.90
10722;DHT22;5412;59.450;18.124;2024-03-02T04:21:52;5.80;99.90
10722;DHT22;5412;59.450;18.124;2024-03-02T04:24:17;5.80;99.90
10722;DHT22;5412;59.450;18.124;2024-03-02T04:26:43;5.80;99.90
10722;DHT22;5412;59.450;18.124;2024-03-02T04:29:09;5.90;99.90
10722;DHT22;5412;59.450;18.124;2024-03-02T04:31:34;5.90;99.90
10722;DHT22;5412;59.450;18.124;2024-03-02T04:34:00;5.70;99.90
10722;DHT22;5412;59.450;18.124;2024-03-02T04:36:26;5.70;99.90
10722;DHT22;5412;59.450;18.124;2024-03-02T04:38:51;5.70;99.90
10722;DHT22;5412;59.450;18.124;2024-03-02T04:41:17;5.60;99.90
10722;DHT22;5412;59.450;18.124;2024-03-02T04:43:43;5.60;99.90
10722;DHT22;5412;59.450;18.124;2024-03-02T04:46:08;5.60;99.90
10722;DHT22;5412;59.450;18.124;2024-03-02T04:48:34;5.60;99.90
10722;DHT22;5412;59.450;18.124;2024-03-02T04:50:59;5.60;99.90
10722;DHT22;5412;59.450;18.124;2024-03-02T04:53:25;5.70;99.90
10722;DHT22;5412;59.450;18.124;2024-03-02T04:55:51;5.70;99.90
10722;DHT22;5412;59.450;18.124;2024-03-02T04:58:19;5.70;99.90
10722;DHT22;5412;59.450;18.124;2024-03-02T05:00:45;5.70;99.90
10722;DHT22;5412;59.450;18.124;2024-03-02T05:03:12;5.70;99.90
10722;DHT22;5412;59.450;18.124;2024-03-02T05:05:38;5.70;99.90
10722;DHT22;5412;59.450;18.124;2024-03-02T05:08:04;5.70;99.90
10722;DHT22;5412;59.450;18.124;2024-03-02T05:10:30;5.70;99.90
10722;DHT22;5412;59.450;18.124;2024-03-02T05:12:55;5.70;99.90
10722;DHT22;5412;59.450;18.124;2024-03-02T05:15:25;5.70;99.90
10722;DHT22;5412;59.450;18.124;2024-03-02T05:17:51;5.70;99.90
10722;DHT22;5412;59.450;18.124;2024-03-02T05:20:16;5.70;99.90
10722;DHT22;5412;59.450;18.124;2024-03-02T05:22:42;5.80;99.90
10722;DHT22;5412;59.450;18.124;2024-03-02T05:25:08;5.70;99.90
10722;DHT22;5412;59.450;18.124;2024-03-02T05:27:35;5.70;99.90
10722;DHT22;5412;59.450;18.124;2024-03-02T05:30:01;5.80;99.90
10722;DHT22;5412;59.450;18.124;2024-03-02T05:32:26;5.80;99.90
10722;DHT22;5412;59.450;18.124;2024-03-02T05:34:52;5.80;99.90
10722;DHT22;5412;59.450;18.124;2024-03-02T05:37:18;5.70;99.90
10722;DHT22;5412;59.450;18.124;2024-03-02T05:39:43;5.80;99.90
10722;DHT22;5412;59.450;18.124;2024-03-02T05:42:09;5.80;99.90
10722;DHT22;5412;59.450;18.124;2024-03-02T05:44:36;5.80;99.90
10722;DHT22;5412;59.450;18.124;2024-03-02T05:47:02;5.80;99.90
10722;DHT22;5412;59.450;18.124;2024-03-02T05:49:28;5.80;99.90
10722;DHT22;5412;59.450;18.124;2024-03-02T05:51:54;5.70;99.90
10722;DHT22;5412;59.450;18.124;2024-03-02T05:54:19;5.80;99.90
10722;DHT22;5412;59.450;18.124;2024-03-02T05:56:45;5.90;99.90
10722;DHT22;5412;59.450;18.124;2024-03-02T05:59:11;5.80;99.90
10722;DHT22;5412;59.450;18.124;2024-03-02T06:01:43;5.80;99.90
10722;DHT22;5412;59.450;18.124;2024-03-02T06:04:09;5.80;99.90
10722;DHT22;5412;59.450;18.124;2024-03-02T06:06:36;5.80;99.90
10722;DHT22;5412;59.450;18.124;2024-03-02T06:09:03;5.80;99.90
10722;DHT22;5412;59.450;18.124;2024-03-02T06:11:40;5.70;99.90
10722;DHT22;5412;59.450;18.124;2024-03-02T06:14:07;5.70;99.90
10722;DHT22;5412;59.450;18.124;2024-03-02T06:16:34;5.70;99.90
10722;DHT22;5412;59.450;18.124;2024-03-02T06:19:00;5.80;99.90
10722;DHT22;5412;59.450;18.124;2024-03-02T06:21:26;5.60;99.90
10722;DHT22;5412;59.450;18.124;2024-03-02T06:23:52;5.70;99.90
10722;DHT22;5412;59.450;18.124;2024-03-02T06:26:18;5.70;99.90
10722;DHT22;5412;59.450;18.124;2024-03-02T06:28:45;5.60;99.90
10722;DHT22;5412;59.450;18.124;2024-03-02T06:31:10;5.60;99.90
10722;DHT22;5412;59.450;18.124;2024-03-02T06:33:36;5.70;99.90
10722;DHT22;5412;59.450;18.124;2024-03-02T06:36:02;5.70;99.90
10722;DHT22;5412;59.450;18.124;2024-03-02T06:38:28;5.80;99.90
10722;DHT22;5412;59.450;18.124;2024-03-02T06:40:54;5.80;99.90
10722;DHT22;5412;59.450;18.124;2024-03-02T06:43:23;5.70;99.90
10722;DHT22;5412;59.450;18.124;2024-03-02T06:45:49;5.80;99.90
10722;DHT22;5412;59.450;18.124;2024-03-02T06:48:16;5.80;99.90
10722;DHT22;5412;59.450;18.124;2024-03-02T06:50:46;5.90;99.90
10722;DHT22;5412;59.450;18.124;2024-03-02T06:53:13;5.80;99.90
10722;DHT22;5412;59.450;18.124;2024-03-02T06:55:39;5.90;99.90
10722;DHT22;5412;59.450;18.124;2024-03-02T06:58:05;6.00;99.90
10722;DHT22;5412;59.450;18.124;2024-03-02T07:00:30;6.00;99.90
10722;DHT22;5412;59.450;18.124;2024-03-02T07:02:56;6.10;99.90
10722;DHT22;5412;59.450;18.124;2024-03-02T07:05:22;6.10;99.90
10722;DHT22;5412;59.450;18.124;2024-03-02T07:07:47;6.10;99.90
10722;DHT22;5412;59.450;18.124;2024-03-02T07:10:13;6.10;99.90
10722;DHT22;5412;59.450;18.124;2024-03-02T07:12:39;6.20;99.90
10722;DHT22;5412;59.450;18.124;2024-03-02T07:15:05;6.30;99.90
10722;DHT22;5412;59.450;18.124;2024-03-02T07:17:32;6.20;99.90
10722;DHT22;5412;59.450;18.124;2024-03-02T07:19:58;6.20;99.90
10722;DHT22;5412;59.450;18.124;2024-03-02T07:22:23;6.20;99.90
10722;DHT22;5412;59.450;18.124;2024-03-02T07:24:49;6.20;99.90
10722;DHT22;5412;59.450;18.124;2024-03-02T07:27:16;6.20;99.90
10722;DHT22;5412;59.450;18.124;2024-03-02T07:29:43;6.30;99.90
10722;DHT22;5412;59.450;18.124;2024-03-02T07:32:09;6.40;99.90
10722;DHT22;5412;59.450;18.124;2024-03-02T07:34:35;6.40;99.90
10722;DHT22;5412;59.450;18.124;2024-03-02T07:37:01;6.40;99.90
10722;DHT22;5412;59.450;18.124;2024-03-02T07:39:27;6.30;99.90
10722;DHT22;5412;59.450;18.124;2024-03-02T07:41:53;6.40;99.90
10722;DHT22;5412;59.450;18.124;2024-03-02T07:44:19;6.50;99.90
10722;DHT22;5412;59.450;18.124;2024-03-02T07:46:46;6.50;99.90
10722;DHT22;5412;59.450;18.124;2024-03-02T07:49:12;6.50;99.90
10722;DHT22;5412;59.450;18.124;2024-03-02T07:51:41;6.50;99.90
10722;DHT22;5412;59.450;18.124;2024-03-02T07:54:07;6.50;99.90
10722;DHT22;5412;59.450;18.124;2024-03-02T07:56:33;6.60;99.90
10722;DHT22;5412;59.450;18.124;2024-03-02T07:58:58;6.50;99.90
10722;DHT22;5412;59.450;18.124;2024-03-02T08:01:33;6.50;99.90
10722;DHT22;5412;59.450;18.124;2024-03-02T08:04:00;6.60;99.90
10722;DHT22;5412;59.450;18.124;2024-03-02T08:06:26;6.70;99.90
10722;DHT22;5412;59.450;18.124;2024-03-02T08:09:00;6.70;99.90
10722;DHT22;5412;59.450;18.124;2024-03-02T08:11:26;6.90;99.90
10722;DHT22;5412;59.450;18.124;2024-03-02T08:13:56;6.80;99.90
10722;DHT22;5412;59.450;18.124;2024-03-02T08:16:23;6.80;99.90
10722;DHT22;5412;59.450;18.124;2024-03-02T08:18:49;6.80;99.90
10722;DHT22;5412;59.450;18.124;2024-03-02T08:21:15;6.70;99.90
10722;DHT22;5412;59.450;18.124;2024-03-02T08:23:43;6.80;99.90
10722;DHT22;5412;59.450;18.124;2024-03-02T08:26:09;6.80;99.90
10722;DHT22;5412;59.450;18.124;2024-03-02T08:28:35;6.80;99.90
10722;DHT22;5412;59.450;18.124;2024-03-02T08:31:05;6.80;99.90
10722;DHT22;5412;59.450;18.124;2024-03-02T08:33:31;6.90;99.90
10722;DHT22;5412;59.450;18.124;2024-03-02T08:35:56;6.80;99.90
10722;DHT22;5412;59.450;18.124;2024-03-02T08:38:22;6.70;99.90
10722;DHT22;5412;59.450;18.124;2024-03-02T08:40:49;6.60;99.90
10722;DHT22;5412;59.450;18.124;2024-03-02T08:43:15;6.70;99.90
10722;DHT22;5412;59.450;18.124;2024-03-02T08:45:41;6.60;99.90
10722;DHT22;5412;59.450;18.124;2024-03-02T08:48:10;6.60;99.90
10722;DHT22;5412;59.450;18.124;2024-03-02T08:50:36;6.60;99.90
10722;DHT22;5412;59.450;18.124;2024-03-02T08:53:03;6.50;99.90
10722;DHT22;5412;59.450;18.124;2024-03-02T08:55:29;6.50;99.90
10722;DHT22;5412;59.450;18.124;2024-03-02T08:57:55;6.50;99.90
10722;DHT22;5412;59.450;18.124;2024-03-02T09:00:21;6.50;99.90
10722;DHT22;5412;59.450;18.124;2024-03-02T09:02:47;6.50;99.90
10722;DHT22;5412;59.450;18.124;2024-03-02T09:05:13;6.50;99.90
10722;DHT22;5412;59.450;18.124;2024-03-02T09:07:39;6.50;99.90
10722;DHT22;5412;59.450;18.124;2024-03-02T09:10:05;6.60;99.90
10722;DHT22;5412;59.450;18.124;2024-03-02T09:12:32;6.50;99.90
10722;DHT22;5412;59.450;18.124;2024-03-02T09:14:59;6.50;99.90
10722;DHT22;5412;59.450;18.124;2024-03-02T09:17:25;6.50;99.90
10722;DHT22;5412;59.450;18.124;2024-03-02T09:19:50;6.50;99.90
10722;DHT22;5412;59.450;18.124;2024-03-02T09:22:19;6.50;99.90
10722;DHT22;5412;59.450;18.124;2024-03-02T09:24:45;6.60;99.90
10722;DHT22;5412;59.450;18.124;2024-03-02T09:27:11;6.60;99.90
10722;DHT22;5412;59.450;18.124;2024-03-02T09:29:37;6.50;99.90
10722;DHT22;5412;59.450;18.124;2024-03-02T09:32:03;6.60;99.90
10722;DHT22;5412;59.450;18.124;2024-03-02T09:34:29;6.60;99.90
10722;DHT22;5412;59.450;18.124;2024-03-02T09:36:54;6.60;99.90
10722;DHT22;5412;59.450;18.124;2024-03-02T09:39:20;6.70;99.90
10722;DHT22;5412;59.450;18.124;2024-03-02T09:41:47;6.70;99.90
10722;DHT22;5412;59.450;18.124;2024-03-02T09:44:13;6.90;99.90
10722;DHT22;5412;59.450;18.124;2024-03-02T09:46:39;7.00;99.90
10722;DHT22;5412;59.450;18.124;2024-03-02T09:49:05;7.10;99.90
10722;DHT22;5412;59.450;18.124;2024-03-02T09:51:31;7.20;99.90
10722;DHT22;5412;59.450;18.124;2024-03-02T09:53:57;7.20;99.90
10722;DHT22;5412;59.450;18.124;2024-03-02T09:56:26;7.20;99.90
10722;DHT22;5412;59.450;18.124;2024-03-02T09:58:51;7.20;99.90
10722;DHT22;5412;59.450;18.124;2024-03-02T10:01:17;7.10;99.90
10722;DHT22;5412;59.450;18.124;2024-03-02T10:03:44;7.20;99.90
10722;DHT22;5412;59.450;18.124;2024-03-02T10:08:46;7.10;99.90
10722;DHT22;5412;59.450;18.124;2024-03-02T10:14:10;7.10;99.90
10722;DHT22;5412;59.450;18.124;2024-03-02T10:16:40;7.00;99.90
10722;DHT22;5412;59.450;18.124;2024-03-02T10:19:17;7.00;99.90
10722;DHT22;5412;59.450;18.124;2024-03-02T10:21:45;7.00;99.90
10722;DHT22;5412;59.450;18.124;2024-03-02T10:24:10;7.00;99.90
10722;DHT22;5412;59.450;18.124;2024-03-02T10:26:36;7.00;99.90
10722;DHT22;5412;59.450;18.124;2024-03-02T10:29:02;7.00;99.90
10722;DHT22;5412;59.450;18.124;2024-03-02T10:31:28;6.90;99.90
10722;DHT22;5412;59.450;18.124;2024-03-02T10:34:03;6.90;99.90
10722;DHT22;5412;59.450;18.124;2024-03-02T10:36:29;6.90;99.90
10722;DHT22;5412;59.450;18.124;2024-03-02T10:38:56;6.80;99.90
10722;DHT22;5412;59.450;18.124;2024-03-02T10:41:24;6.80;99.90
10722;DHT22;5412;59.450;18.124;2024-03-02T10:43:53;6.80;99.90
10722;DHT22;5412;59.450;18.124;2024-03-02T10:46:37;6.70;99.90
10722;DHT22;5412;59.450;18.124;2024-03-02T10:49:04;6.70;99.90
10722;DHT22;5412;59.450;18.124;2024-03-02T10:51:32;6.60;99.90
10722;DHT22;5412;59.450;18.124;2024-03-02T10:53:58;6.80;99.90
10722;DHT22;5412;59.450;18.124;2024-03-02T10:56:33;6.90;99.90
10722;DHT22;5412;59.450;18.124;2024-03-02T10:59:23;6.80;99.90
10722;DHT22;5412;59.450;18.124;2024-03-02T11:01:50;7.00;99.90
10722;DHT22;5412;59.450;18.124;2024-03-02T11:04:17;6.90;99.90
10722;DHT22;5412;59.450;18.124;2024-03-02T11:06:50;7.00;99.90
10722;DHT22;5412;59.450;18.124;2024-03-02T11:09:20;7.00;99.90
10722;DHT22;5412;59.450;18.124;2024-03-02T11:11:59;6.90;99.90
10722;DHT22;5412;59.450;18.124;2024-03-02T11:14:30;6.90;99.90
10722;DHT22;5412;59.450;18.124;2024-03-02T11:16:58;6.90;99.90
10722;DHT22;5412;59.450;18.124;2024-03-02T11:19:25;6.90;99.90
10722;DHT22;5412;59.450;18.124;2024-03-02T11:21:51;8.00;99.90
10722;DHT22;5412;59.450;18.124;2024-03-02T11:26:50;6.80;99.90
10722;DHT22;5412;59.450;18.124;2024-03-02T11:32:03;6.80;99.90
10722;DHT22;5412;59.450;18.124;2024-03-02T11:34:36;7.00;99.90
10722;DHT22;5412;59.450;18.124;2024-03-02T11:37:02;6.90;99.90
10722;DHT22;5412;59.450;18.124;2024-03-02T11:39:28;6.80;99.90
10722;DHT22;5412;59.450;18.124;2024-03-02T11:41:56;6.80;99.90
10722;DHT22;5412;59.450;18.124;2024-03-02T11:44:26;6.90;99.90
10722;DHT22;5412;59.450;18.124;2024-03-02T11:47:02;7.00;99.90
10722;DHT22;5412;59.450;18.124;2024-03-02T11:49:49;6.90;99.90
10722;DHT22;5412;59.450;18.124;2024-03-02T11:52:16;6.90;99.90
10722;DHT22;5412;59.450;18.124;2024-03-02T11:54:45;7.00;99.90
10722;DHT22;5412;59.450;18.124;2024-03-02T11:57:21;7.00;99.90
10722;DHT22;5412;59.450;18.124;2024-03-02T11:59:51;6.80;99.90
10722;DHT22;5412;59.450;18.124;2024-03-02T12:02:21;6.80;99.90
10722;DHT22;5412;59.450;18.124;2024-03-02T12:04:48;6.70;99.90
10722;DHT22;5412;59.450;18.124;2024-03-02T12:07:22;6.70;99.90
10722;DHT22;5412;59.450;18.124;2024-03-02T12:09:49;6.70;99.90
10722;DHT22;5412;59.450;18.124;2024-03-02T12:12:24;6.70;99.90
10722;DHT22;5412;59.450;18.124;2024-03-02T12:14:51;6.60;99.90
10722;DHT22;5412;59.450;18.124;2024-03-02T12:17:18;6.60;99.90
10722;DHT22;5412;59.450;18.124;2024-03-02T12:19:44;6.50;99.90
10722;DHT22;5412;59.450;18.124;2024-03-02T12:22:11;6.40;99.90
10722;DHT22;5412;59.450;18.124;2024-03-02T12:24:37;6.50;99.90
10722;DHT22;5412;59.450;18.124;2024-03-02T12:27:04;6.50;99.90
10722;DHT22;5412;59.450;18.124;2024-03-02T12:29:30;6.50;99.90
10722;DHT22;5412;59.450;18.124;2024-03-02T12:31:56;6.60;99.90
10722;DHT22;5412;59.450;18.124;2024-03-02T12:34:22;6.60;99.90
10722;DHT22;5412;59.450;18.124;2024-03-02T12:36:49;6.60;99.90
10722;DHT22;5412;59.450;18.124;2024-03-02T12:39:18;6.60;99.90
10722;DHT22;5412;59.450;18.124;2024-03-02T12:41:45;6.50;99.90
10722;DHT22;5412;59.450;18.124;2024-03-02T12:44:11;6.60;99.90
10722;DHT22;5412;59.450;18.124;2024-03-02T12:46:37;6.50;99.90
10722;DHT22;5412;59.450;18.124;2024-03-02T12:49:14;6.50;99.90
10722;DHT22;5412;59.450;18.124;2024-03-02T12:51:42;6.50;99.90
10722;DHT22;5412;59.450;18.124;2024-03-02T12:54:09;6.50;99.90
10722;DHT22;5412;59.450;18.124;2024-03-02T12:56:38;6.50;99.90
10722;DHT22;5412;59.450;18.124;2024-03-02T12:59:07;6.50;99.90
10722;DHT22;5412;59.450;18.124;2024-03-02T13:01:32;6.40;99.90
10722;DHT22;5412;59.450;18.124;2024-03-02T13:03:58;6.50;99.90
10722;DHT22;5412;59.450;18.124;2024-03-02T13:06:25;6.50;99.90
10722;DHT22;5412;59.450;18.124;2024-03-02T13:08:54;6.40;99.90
10722;DHT22;5412;59.450;18.124;2024-03-02T13:11:22;6.40;99.90
10722;DHT22;5412;59.450;18.124;2024-03-02T13:13:49;6.30;99.90
10722;DHT22;5412;59.450;18.124;2024-03-02T13:16:15;6.40;99.90
10722;DHT22;5412;59.450;18.124;2024-03-02T13:18:42;6.30;99.90
10722;DHT22;5412;59.450;18.124;2024-03-02T13:21:10;6.30;99.90
10722;DHT22;5412;59.450;18.124;2024-03-02T13:23:35;6.20;99.90
10722;DHT22;5412;59.450;18.124;2024-03-02T13:26:01;6.20;99.90
10722;DHT22;5412;59.450;18.124;2024-03-02T13:28:27;6.30;99.90
10722;DHT22;5412;59.450;18.124;2024-03-02T13:30:53;6.40;99.90
10722;DHT22;5412;59.450;18.124;2024-03-02T13:33:19;6.30;99.90
10722;DHT22;5412;59.450;18.124;2024-03-02T13:35:51;6.30;99.90
10722;DHT22;5412;59.450;18.124;2024-03-02T13:38:20;6.30;99.90
10722;DHT22;5412;59.450;18.124;2024-03-02T13:40:49;6.30;99.90
10722;DHT22;5412;59.450;18.124;2024-03-02T13:43:18;6.30;99.90
10722;DHT22;5412;59.450;18.124;2024-03-02T13:45:47;6.30;99.90
10722;DHT22;5412;59.450;18.124;2024-03-02T13:48:13;6.40;99.90
10722;DHT22;5412;59.450;18.124;2024-03-02T13:50:40;6.40;99.90
10722;DHT22;5412;59.450;18.124;2024-03-02T13:53:06;6.30;99.90
10722;DHT22;5412;59.450;18.124;2024-03-02T13:55:32;6.20;99.90
10722;DHT22;5412;59.450;18.124;2024-03-02T13:57:58;6.30;99.90
10722;DHT22;5412;59.450;18.124;2024-03-02T14:00:24;6.30;99.90
10722;DHT22;5412;59.450;18.124;2024-03-02T14:02:50;6.30;99.90
10722;DHT22;5412;59.450;18.124;2024-03-02T14:05:16;6.40;99.90
10722;DHT22;5412;59.450;18.124;2024-03-02T14:07:42;6.40;99.90
10722;DHT22;5412;59.450;18.124;2024-03-02T14:10:09;6.40;99.90
10722;DHT22;5412;59.450;18.124;2024-03-02T14:12:36;6.40;99.90
10722;DHT22;5412;59.450;18.124;2024-03-02T14:15:01;6.40;99.90
10722;DHT22;5412;59.450;18.124;2024-03-02T14:17:30;6.30;99.90
10722;DHT22;5412;59.450;18.124;2024-03-02T14:19:57;6.30;99.90
10722;DHT22;5412;59.450;18.124;2024-03-02T14:22:25;6.30;99.90
10722;DHT22;5412;59.450;18.124;2024-03-02T14:24:50;6.30;99.90
10722;DHT22;5412;59.450;18.124;2024-03-02T14:27:16;6.30;99.90
10722;DHT22;5412;59.450;18.124;2024-03-02T14:29:45;6.40;99.90
10722;DHT22;5412;59.450;18.124;2024-03-02T14:32:10;6.40;99.90
10722;DHT22;5412;59.450;18.124;2024-03-02T14:34:36;6.40;99.90
10722;DHT22;5412;59.450;18.124;2024-03-02T14:37:02;6.40;99.90
10722;DHT22;5412;59.450;18.124;2024-03-02T14:39:28;6.40;99.90
10722;DHT22;5412;59.450;18.124;2024-03-02T14:41:54;6.30;99.90
10722;DHT22;5412;59.450;18.124;2024-03-02T14:44:21;6.20;99.90
10722;DHT22;5412;59.450;18.124;2024-03-02T14:46:48;6.20;99.90
10722;DHT22;5412;59.450;18.124;2024-03-02T14:49:13;6.20;99.90
10722;DHT22;5412;59.450;18.124;2024-03-02T14:51:39;6.20;99.90
10722;DHT22;5412;59.450;18.124;2024-03-02T14:54:05;6.20;99.90
10722;DHT22;5412;59.450;18.124;2024-03-02T14:56:31;6.20;99.90
10722;DHT22;5412;59.450;18.124;2024-03-02T14:58:56;6.30;99.90
10722;DHT22;5412;59.450;18.124;2024-03-02T15:01:22;6.20;99.90
10722;DHT22;5412;59.450;18.124;2024-03-02T15:03:52;6.30;99.90
10722;DHT22;5412;59.450;18.124;2024-03-02T15:06:18;6.20;99.90
10722;DHT22;5412;59.450;18.124;2024-03-02T15:08:44;6.10;99.90
10722;DHT22;5412;59.450;18.124;2024-03-02T15:11:12;6.10;99.90
10722;DHT22;5412;59.450;18.124;2024-03-02T15:13:38;6.10;99.90
10722;DHT22;5412;59.450;18.124;2024-03-02T15:16:04;6.10;99.90
10722;DHT22;5412;59.450;18.124;2024-03-02T15:18:30;6.10;99.90
10722;DHT22;5412;59.450;18.124;2024-03-02T15:20:56;6.00;99.90
10722;DHT22;5412;59.450;18.124;2024-03-02T15:23:21;6.10;99.90
10722;DHT22;5412;59.450;18.124;2024-03-02T15:25:47;6.10;99.90
10722;DHT22;5412;59.450;18.124;2024-03-02T15:28:13;6.10;99.90
10722;DHT22;5412;59.450;18.124;2024-03-02T15:30:39;6.10;99.90
10722;DHT22;5412;59.450;18.124;2024-03-02T15:33:05;6.00;99.90
10722;DHT22;5412;59.450;18.124;2024-03-02T15:35:30;6.00;99.90
10722;DHT22;5412;59.450;18.124;2024-03-02T15:37:56;6.00;99.90
10722;DHT22;5412;59.450;18.124;2024-03-02T15:40:22;6.00;99.90
10722;DHT22;5412;59.450;18.124;2024-03-02T15:42:48;6.10;99.90
10722;DHT22;5412;59.450;18.124;2024-03-02T15:45:13;6.00;99.90
10722;DHT22;5412;59.450;18.124;2024-03-02T15:47:39;6.10;99.90
10722;DHT22;5412;59.450;18.124;2024-03-02T15:50:05;6.00;99.90
10722;DHT22;5412;59.450;18.124;2024-03-02T15:52:32;6.00;99.90
10722;DHT22;5412;59.450;18.124;2024-03-02T15:54:58;6.10;99.90
10722;DHT22;5412;59.450;18.124;2024-03-02T15:57:24;6.00;99.90